sensor_id;sensor_type;location;lat;lon;timestamp;temperature;humidity
12771;DHT22;6449;47.666;9.160;2023-07-09T00:03:11;20.40;99.90
12771;DHT22;6449;47.666;9.160;2023-07-09T00:08:05;20.10;99.90
12771;DHT22;6449;47.666;9.160;2023-07-09T00:12:58;20.10;99.90
12771;DHT22;6449;47.666;9.160;2023-07-09T00:17:53;19.80;99.90
12771;DHT22;6449;47.666;9.160;2023-07-09T00:22:46;19.80;99.90
12771;DHT22;6449;47.666;9.160;2023-07-09T00:27:44;19.80;99.90
12771;DHT22;6449;47.666;9.160;2023-07-09T00:32:40;19.80;99.90
12771;DHT22;6449;47.666;9.160;2023-07-09T00:37:36;19.70;99.90
12771;DHT22;6449;47.666;9.160;2023-07-09T00:42:30;19.60;99.90
12771;DHT22;6449;47.666;9.160;2023-07-09T00:47:31;19.50;99.90
12771;DHT22;6449;47.666;9.160;2023-07-09T00:52:40;19.60;99.90
12771;DHT22;6449;47.666;9.160;2023-07-09T00:57:40;19.70;99.90
12771;DHT22;6449;47.666;9.160;2023-07-09T01:02:36;19.50;99.90
12771;DHT22;6449;47.666;9.160;2023-07-09T01:07:30;19.50;99.90
12771;DHT22;6449;47.666;9.160;2023-07-09T01:12:25;19.40;99.90
12771;DHT22;6449;47.666;9.160;2023-07-09T01:17:19;19.30;99.90
12771;DHT22;6449;47.666;9.160;2023-07-09T01:22:16;19.10;99.90
12771;DHT22;6449;47.666;9.160;2023-07-09T01:27:13;19.20;99.90
12771;DHT22;6449;47.666;9.160;2023-07-09T01:32:06;19.10;99.90
12771;DHT22;6449;47.666;9.160;2023-07-09T01:37:01;19.00;99.90
12771;DHT22;6449;47.666;9.160;2023-07-09T01:41:56;19.10;99.90
12771;DHT22;6449;47.666;9.160;2023-07-09T01:46:49;19.20;99.90
12771;DHT22;6449;47.666;9.160;2023-07-09T01:51:45;19.20;99.90
12771;DHT22;6449;47.666;9.160;2023-07-09T01:56:39;19.00;99.90
12771;DHT22;6449;47.666;9.160;2023-07-09T02:01:33;19.00;99.90
12771;DHT22;6449;47.666;9.160;2023-07-09T02:06:30;19.00;99.90
12771;DHT22;6449;47.666;9.160;2023-07-09T02:11:24;19.10;99.90
12771;DHT22;6449;47.666;9.160;2023-07-09T02:16:17;19.10;99.90
12771;DHT22;6449;47.666;9.160;2023-07-09T02:21:12;19.30;99.90
12771;DHT22;6449;47.666;9.160;2023-07-09T02:26:06;19.10;99.90
12771;DHT22;6449;47.666;9.160;2023-07-09T02:30:59;18.80;99.90
12771;DHT22;6449;47.666;9.160;2023-07-09T02:35:52;18.70;99.90
12771;DHT22;6449;47.666;9.160;2023-07-09T02:40:47;18.80;99.90
12771;DHT22;6449;47.666;9.160;2023-07-09T02:45:41;18.60;99.90
12771;DHT22;6449;47.666;9.160;2023-07-09T02:50:34;18.70;99.90
12771;DHT22;6449;47.666;9.160;2023-07-09T02:55:27;18.30;99.90
12771;DHT22;6449;47.666;9.160;2023-07-09T03:00:23;18.40;99.90
12771;DHT22;6449;47.666;9.160;2023-07-09T03:05:16;18.60;99.90
12771;DHT22;6449;47.666;9.160;2023-07-09T03:10:10;18.70;99.90
12771;DHT22;6449;47.666;9.160;2023-07-09T03:15:04;18.90;99.90
12771;DHT22;6449;47.666;9.160;2023-07-09T03:19:59;18.70;99.90
12771;DHT22;6449;47.666;9.160;2023-07-09T03:24:52;18.60;99.90
12771;DHT22;6449;47.666;9.160;2023-07-09T03:29:46;18.50;99.90
12771;DHT22;6449;47.666;9.160;2023-07-09T03:34:39;18.40;99.90
12771;DHT22;6449;47.666;9.160;2023-07-09T03:39:34;18.40;99.90
12771;DHT22;6449;47.666;9.160;2023-07-09T03:44:27;18.50;99.90
12771;DHT22;6449;47.666;9.160;2023-07-09T03:49:20;18.40;99.90
12771;DHT22;6449;47.666;9.160;2023-07-09T03:54:14;18.50;99.90
12771;DHT22;6449;47.666;9.160;2023-07-09T03:59:08;18.50;99.90
12771;DHT22;6449;47.666;9.160;2023-07-09T04:04:02;18.50;99.90
12771;DHT22;6449;47.666;9.160;2023-07-09T04:08:55;18.40;99.90
12771;DHT22;6449;47.666;9.160;2023-07-09T04:13:49;18.20;99.90
12771;DHT22;6449;47.666;9.160;2023-07-09T04:18:43;18.20;99.90
12771;DHT22;6449;47.666;9.160;2023-07-09T04:23:37;18.40;99.90
12771;DHT22;6449;47.666;9.160;2023-07-09T04:28:30;18.40;99.90
12771;DHT22;6449;47.666;9.160;2023-07-09T04:33:24;18.40;99.90
12771;DHT22;6449;47.666;9.160;2023-07-09T04:38:18;18.20;99.90
12771;DHT22;6449;47.666;9.160;2023-07-09T04:43:12;18.40;99.90
12771;DHT22;6449;47.666;9.160;2023-07-09T04:48:05;18.60;99.90
12771;DHT22;6449;47.666;9.160;2023-07-09T04:53:00;18.80;99.90
12771;DHT22;6449;47.666;9.160;2023-07-09T04:57:55;19.10;99.90
12771;DHT22;6449;47.666;9.160;2023-07-09T05:02:50;19.40;99.90
12771;DHT22;6449;47.666;9.160;2023-07-09T05:07:43;19.70;99.90
12771;DHT22;6449;47.666;9.160;2023-07-09T05:12:47;19.90;99.90
12771;DHT22;6449;47.666;9.160;2023-07-09T05:17:43;20.20;99.90
12771;DHT22;6449;47.666;9.160;2023-07-09T05:22:37;20.40;99.90
12771;DHT22;6449;47.666;9.160;2023-07-09T05:27:30;20.50;99.90
12771;DHT22;6449;47.666;9.160;2023-07-09T05:32:23;20.70;99.90
12771;DHT22;6449;47.666;9.160;2023-07-09T05:37:18;20.80;99.90
12771;DHT22;6449;47.666;9.160;2023-07-09T05:42:11;20.90;99.90
12771;DHT22;6449;47.666;9.160;2023-07-09T05:47:05;21.10;99.90
12771;DHT22;6449;47.666;9.160;2023-07-09T05:51:58;21.30;99.90
12771;DHT22;6449;47.666;9.160;2023-07-09T05:56:53;21.30;99.90
12771;DHT22;6449;47.666;9.160;2023-07-09T06:01:46;21.30;99.90
12771;DHT22;6449;47.666;9.160;2023-07-09T06:06:40;21.40;99.90
12771;DHT22;6449;47.666;9.160;2023-07-09T06:11:34;21.30;99.90
12771;DHT22;6449;47.666;9.160;2023-07-09T06:16:29;21.30;99.90
12771;DHT22;6449;47.666;9.160;2023-07-09T06:21:23;21.20;99.90
12771;DHT22;6449;47.666;9.160;2023-07-09T06:26:16;21.10;99.90
12771;DHT22;6449;47.666;9.160;2023-07-09T06:31:10;21.10;99.90
12771;DHT22;6449;47.666;9.160;2023-07-09T06:36:05;21.20;99.90
12771;DHT22;6449;47.666;9.160;2023-07-09T06:40:59;21.30;99.90
12771;DHT22;6449;47.666;9.160;2023-07-09T06:45:55;21.30;99.90
12771;DHT22;6449;47.666;9.160;2023-07-09T06:50:52;21.30;99.90
12771;DHT22;6449;47.666;9.160;2023-07-09T06:55:47;21.30;99.90
12771;DHT22;6449;47.666;9.160;2023-07-09T07:00:41;21.50;99.90
12771;DHT22;6449;47.666;9.160;2023-07-09T07:05:35;21.70;99.90
12771;DHT22;6449;47.666;9.160;2023-07-09T07:10:29;21.90;99.90
12771;DHT22;6449;47.666;9.160;2023-07-09T07:15:24;22.20;99.90
12771;DHT22;6449;47.666;9.160;2023-07-09T07:20:18;22.30;99.90
12771;DHT22;6449;47.666;9.160;2023-07-09T07:25:12;22.60;99.90
12771;DHT22;6449;47.666;9.160;2023-07-09T07:30:07;23.00;99.90
12771;DHT22;6449;47.666;9.160;2023-07-09T07:35:03;23.20;99.90
12771;DHT22;6449;47.666;9.160;2023-07-09T07:39:57;23.50;99.90
12771;DHT22;6449;47.666;9.160;2023-07-09T07:44:51;23.80;99.90
12771;DHT22;6449;47.666;9.160;2023-07-09T07:49:45;24.00;99.90
12771;DHT22;6449;47.666;9.160;2023-07-09T07:54:40;24.20;99.90
12771;DHT22;6449;47.666;9.160;2023-07-09T07:59:33;24.40;99.90
12771;DHT22;6449;47.666;9.160;2023-07-09T08:04:26;24.60;99.90
12771;DHT22;6449;47.666;9.160;2023-07-09T08:09:20;25.00;99.90
12771;DHT22;6449;47.666;9.160;2023-07-09T08:14:15;25.20;99.90
12771;DHT22;6449;47.666;9.160;2023-07-09T08:19:08;25.40;99.90
12771;DHT22;6449;47.666;9.160;2023-07-09T08:24:02;25.70;99.90
12771;DHT22;6449;47.666;9.160;2023-07-09T08:28:55;26.00;99.90
12771;DHT22;6449;47.666;9.160;2023-07-09T08:33:50;26.20;99.90
12771;DHT22;6449;47.666;9.160;2023-07-09T08:38:43;26.20;99.90
12771;DHT22;6449;47.666;9.160;2023-07-09T08:43:49;26.40;99.90
12771;DHT22;6449;47.666;9.160;2023-07-09T08:48:49;26.70;99.90
12771;DHT22;6449;47.666;9.160;2023-07-09T08:53:49;26.90;99.90
12771;DHT22;6449;47.666;9.160;2023-07-09T08:58:49;27.10;99.90
12771;DHT22;6449;47.666;9.160;2023-07-09T09:03:47;27.20;99.90
12771;DHT22;6449;47.666;9.160;2023-07-09T09:08:59;27.50;99.90
12771;DHT22;6449;47.666;9.160;2023-07-09T09:14:03;27.70;99.90
12771;DHT22;6449;47.666;9.160;2023-07-09T09:19:20;28.00;99.90
12771;DHT22;6449;47.666;9.160;2023-07-09T09:24:22;28.20;99.90
12771;DHT22;6449;47.666;9.160;2023-07-09T09:29:24;28.40;99.90
12771;DHT22;6449;47.666;9.160;2023-07-09T09:34:20;28.50;99.90
12771;DHT22;6449;47.666;9.160;2023-07-09T09:39:17;28.70;99.90
12771;DHT22;6449;47.666;9.160;2023-07-09T09:44:18;28.80;99.90
12771;DHT22;6449;47.666;9.160;2023-07-09T09:49:12;28.80;99.90
12771;DHT22;6449;47.666;9.160;2023-07-09T09:54:13;28.90;99.90
12771;DHT22;6449;47.666;9.160;2023-07-09T09:59:18;29.10;99.90
12771;DHT22;6449;47.666;9.160;2023-07-09T10:04:18;29.30;99.90
12771;DHT22;6449;47.666;9.160;2023-07-09T10:09:21;29.40;99.90
12771;DHT22;6449;47.666;9.160;2023-07-09T10:14:33;29.60;99.90
12771;DHT22;6449;47.666;9.160;2023-07-09T10:19:35;29.70;99.90
12771;DHT22;6449;47.666;9.160;2023-07-09T10:24:45;29.90;99.90
12771;DHT22;6449;47.666;9.160;2023-07-09T10:30:08;30.00;99.90
12771;DHT22;6449;47.666;9.160;2023-07-09T10:35:18;30.10;99.90
12771;DHT22;6449;47.666;9.160;2023-07-09T10:40:36;30.10;99.90
12771;DHT22;6449;47.666;9.160;2023-07-09T10:45:38;30.10;99.90
12771;DHT22;6449;47.666;9.160;2023-07-09T10:50:37;30.20;99.90
12771;DHT22;6449;47.666;9.160;2023-07-09T10:55:39;30.40;99.90
12771;DHT22;6449;47.666;9.160;2023-07-09T11:00:41;30.30;99.90
12771;DHT22;6449;47.666;9.160;2023-07-09T11:05:36;30.30;99.90
12771;DHT22;6449;47.666;9.160;2023-07-09T11:10:32;30.40;99.90
12771;DHT22;6449;47.666;9.160;2023-07-09T11:15:34;30.60;99.90
12771;DHT22;6449;47.666;9.160;2023-07-09T11:20:33;30.90;99.90
12771;DHT22;6449;47.666;9.160;2023-07-09T11:25:39;31.10;99.90
12771;DHT22;6449;47.666;9.160;2023-07-09T11:30:46;31.10;99.90
12771;DHT22;6449;47.666;9.160;2023-07-09T11:35:45;31.20;99.90
12771;DHT22;6449;47.666;9.160;2023-07-09T11:40:46;31.40;99.90
12771;DHT22;6449;47.666;9.160;2023-07-09T11:45:42;31.40;99.90
12771;DHT22;6449;47.666;9.160;2023-07-09T11:50:41;31.40;99.90
12771;DHT22;6449;47.666;9.160;2023-07-09T11:55:40;31.30;99.90
12771;DHT22;6449;47.666;9.160;2023-07-09T12:00:38;31.40;99.60
12771;DHT22;6449;47.666;9.160;2023-07-09T12:05:35;31.80;99.90
12771;DHT22;6449;47.666;9.160;2023-07-09T12:10:33;31.70;98.90
12771;DHT22;6449;47.666;9.160;2023-07-09T12:15:29;32.10;99.50
12771;DHT22;6449;47.666;9.160;2023-07-09T12:20:24;32.10;98.50
12771;DHT22;6449;47.666;9.160;2023-07-09T12:25:22;31.90;96.80
12771;DHT22;6449;47.666;9.160;2023-07-09T12:30:18;31.80;96.30
12771;DHT22;6449;47.666;9.160;2023-07-09T12:35:13;31.60;96.70
12771;DHT22;6449;47.666;9.160;2023-07-09T12:40:13;31.40;94.90
12771;DHT22;6449;47.666;9.160;2023-07-09T12:45:16;31.50;94.20
12771;DHT22;6449;47.666;9.160;2023-07-09T12:50:27;31.50;94.50
12771;DHT22;6449;47.666;9.160;2023-07-09T12:55:25;31.60;94.70
12771;DHT22;6449;47.666;9.160;2023-07-09T13:00:21;31.50;94.80
12771;DHT22;6449;47.666;9.160;2023-07-09T13:05:20;31.40;94.40
12771;DHT22;6449;47.666;9.160;2023-07-09T13:10:18;31.40;93.40
12771;DHT22;6449;47.666;9.160;2023-07-09T13:15:40;31.30;93.20
12771;DHT22;6449;47.666;9.160;2023-07-09T13:20:39;31.30;94.50
12771;DHT22;6449;47.666;9.160;2023-07-09T13:25:34;31.20;92.90
12771;DHT22;6449;47.666;9.160;2023-07-09T13:30:40;31.20;94.60
12771;DHT22;6449;47.666;9.160;2023-07-09T13:35:33;31.00;93.40
12771;DHT22;6449;47.666;9.160;2023-07-09T13:40:27;31.10;93.30
12771;DHT22;6449;47.666;9.160;2023-07-09T13:45:23;31.10;92.60
12771;DHT22;6449;47.666;9.160;2023-07-09T13:50:19;31.10;93.20
12771;DHT22;6449;47.666;9.160;2023-07-09T13:55:17;31.10;92.20
12771;DHT22;6449;47.666;9.160;2023-07-09T14:00:13;31.10;94.70
12771;DHT22;6449;47.666;9.160;2023-07-09T14:05:09;31.00;93.60
12771;DHT22;6449;47.666;9.160;2023-07-09T14:10:09;31.00;93.40
12771;DHT22;6449;47.666;9.160;2023-07-09T14:15:11;31.00;92.70
12771;DHT22;6449;47.666;9.160;2023-07-09T14:20:11;30.90;91.50
12771;DHT22;6449;47.666;9.160;2023-07-09T14:25:09;31.00;92.50
12771;DHT22;6449;47.666;9.160;2023-07-09T14:30:13;31.00;91.50
12771;DHT22;6449;47.666;9.160;2023-07-09T14:35:16;31.10;92.40
12771;DHT22;6449;47.666;9.160;2023-07-09T14:40:13;31.10;93.60
12771;DHT22;6449;47.666;9.160;2023-07-09T14:45:17;31.20;93.00
12771;DHT22;6449;47.666;9.160;2023-07-09T14:50:12;31.20;92.60
12771;DHT22;6449;47.666;9.160;2023-07-09T14:55:09;31.20;93.20
12771;DHT22;6449;47.666;9.160;2023-07-09T15:00:13;31.30;92.40
12771;DHT22;6449;47.666;9.160;2023-07-09T15:05:12;31.30;93.30
12771;DHT22;6449;47.666;9.160;2023-07-09T15:10:12;31.20;93.20
12771;DHT22;6449;47.666;9.160;2023-07-09T15:15:15;31.20;91.10
12771;DHT22;6449;47.666;9.160;2023-07-09T15:20:15;31.20;91.20
12771;DHT22;6449;47.666;9.160;2023-07-09T15:25:13;31.30;90.60
12771;DHT22;6449;47.666;9.160;2023-07-09T15:30:17;31.30;90.60
12771;DHT22;6449;47.666;9.160;2023-07-09T15:35:14;31.20;92.20
12771;DHT22;6449;47.666;9.160;2023-07-09T15:40:17;31.10;91.30
12771;DHT22;6449;47.666;9.160;2023-07-09T15:45:13;31.10;92.80
12771;DHT22;6449;47.666;9.160;2023-07-09T15:50:13;31.00;91.80
12771;DHT22;6449;47.666;9.160;2023-07-09T15:55:16;31.00;93.20
12771;DHT22;6449;47.666;9.160;2023-07-09T16:00:16;31.00;92.20
12771;DHT22;6449;47.666;9.160;2023-07-09T16:05:18;31.00;92.40
12771;DHT22;6449;47.666;9.160;2023-07-09T16:10:17;30.90;92.90
12771;DHT22;6449;47.666;9.160;2023-07-09T16:15:11;30.80;95.90
12771;DHT22;6449;47.666;9.160;2023-07-09T16:20:08;30.70;94.40
12771;DHT22;6449;47.666;9.160;2023-07-09T16:25:12;30.60;95.10
12771;DHT22;6449;47.666;9.160;2023-07-09T16:30:14;30.70;90.70
12771;DHT22;6449;47.666;9.160;2023-07-09T16:35:11;30.80;88.10
12771;DHT22;6449;47.666;9.160;2023-07-09T16:40:13;30.80;85.30
12771;DHT22;6449;47.666;9.160;2023-07-09T16:45:12;30.80;88.90
12771;DHT22;6449;47.666;9.160;2023-07-09T16:50:11;30.70;90.10
12771;DHT22;6449;47.666;9.160;2023-07-09T16:55:08;30.70;86.90
12771;DHT22;6449;47.666;9.160;2023-07-09T17:00:25;30.70;89.50
12771;DHT22;6449;47.666;9.160;2023-07-09T17:05:23;30.80;90.40
12771;DHT22;6449;47.666;9.160;2023-07-09T17:10:17;30.80;88.90
12771;DHT22;6449;47.666;9.160;2023-07-09T17:15:21;30.80;88.50
12771;DHT22;6449;47.666;9.160;2023-07-09T17:20:17;30.80;90.80
12771;DHT22;6449;47.666;9.160;2023-07-09T17:25:24;30.80;90.20
12771;DHT22;6449;47.666;9.160;2023-07-09T17:30:26;30.80;90.40
12771;DHT22;6449;47.666;9.160;2023-07-09T17:35:20;30.80;90.10
12771;DHT22;6449;47.666;9.160;2023-07-09T17:40:17;30.70;89.70
12771;DHT22;6449;47.666;9.160;2023-07-09T17:45:36;30.60;91.60
12771;DHT22;6449;47.666;9.160;2023-07-09T17:50:29;30.40;95.60
12771;DHT22;6449;47.666;9.160;2023-07-09T17:55:23;30.00;97.60
12771;DHT22;6449;47.666;9.160;2023-07-09T18:00:22;29.70;98.50
12771;DHT22;6449;47.666;9.160;2023-07-09T18:05:26;29.50;99.90
12771;DHT22;6449;47.666;9.160;2023-07-09T18:10:22;29.30;99.90
12771;DHT22;6449;47.666;9.160;2023-07-09T18:15:21;29.10;98.90
12771;DHT22;6449;47.666;9.160;2023-07-09T18:20:20;29.10;99.80
12771;DHT22;6449;47.666;9.160;2023-07-09T18:25:16;29.10;98.20
12771;DHT22;6449;47.666;9.160;2023-07-09T18:30:15;29.00;95.20
12771;DHT22;6449;47.666;9.160;2023-07-09T18:35:19;29.00;94.80
12771;DHT22;6449;47.666;9.160;2023-07-09T18:40:16;28.90;94.80
12771;DHT22;6449;47.666;9.160;2023-07-09T18:45:14;28.70;95.60
12771;DHT22;6449;47.666;9.160;2023-07-09T18:50:13;28.50;96.50
12771;DHT22;6449;47.666;9.160;2023-07-09T18:55:21;28.20;96.80
12771;DHT22;6449;47.666;9.160;2023-07-09T19:00:17;28.00;97.70
12771;DHT22;6449;47.666;9.160;2023-07-09T19:05:17;27.90;98.30
12771;DHT22;6449;47.666;9.160;2023-07-09T19:10:16;27.70;99.90
12771;DHT22;6449;47.666;9.160;2023-07-09T19:15:14;27.50;99.90
12771;DHT22;6449;47.666;9.160;2023-07-09T19:20:17;27.30;99.90
12771;DHT22;6449;47.666;9.160;2023-07-09T19:25:17;27.10;99.90
12771;DHT22;6449;47.666;9.160;2023-07-09T19:30:15;27.00;99.90
12771;DHT22;6449;47.666;9.160;2023-07-09T19:35:14;26.80;99.90
12771;DHT22;6449;47.666;9.160;2023-07-09T19:40:17;26.70;99.90
12771;DHT22;6449;47.666;9.160;2023-07-09T19:45:17;26.50;99.90
12771;DHT22;6449;47.666;9.160;2023-07-09T19:50:22;26.20;99.90
12771;DHT22;6449;47.666;9.160;2023-07-09T19:55:19;26.20;99.90
12771;DHT22;6449;47.666;9.160;2023-07-09T20:00:21;25.90;99.90
12771;DHT22;6449;47.666;9.160;2023-07-09T20:05:17;25.90;99.90
12771;DHT22;6449;47.666;9.160;2023-07-09T20:10:12;25.80;99.90
12771;DHT22;6449;47.666;9.160;2023-07-09T20:15:20;25.70;99.90
12771;DHT22;6449;47.666;9.160;2023-07-09T20:20:15;25.60;99.90
12771;DHT22;6449;47.666;9.160;2023-07-09T20:25:13;25.50;99.90
12771;DHT22;6449;47.666;9.160;2023-07-09T20:30:10;25.40;99.90
12771;DHT22;6449;47.666;9.160;2023-07-09T20:35:16;25.40;99.90
12771;DHT22;6449;47.666;9.160;2023-07-09T20:40:14;25.20;99.90
12771;DHT22;6449;47.666;9.160;2023-07-09T20:45:16;25.10;99.90
12771;DHT22;6449;47.666;9.160;2023-07-09T20:50:14;25.00;99.90
12771;DHT22;6449;47.666;9.160;2023-07-09T20:55:11;24.90;99.90
12771;DHT22;6449;47.666;9.160;2023-07-09T21:00:15;24.80;99.90
12771;DHT22;6449;47.666;9.160;2023-07-09T21:05:11;24.90;99.90
12771;DHT22;6449;47.666;9.160;2023-07-09T21:10:13;24.80;99.90
12771;DHT22;6449;47.666;9.160;2023-07-09T21:15:09;24.70;99.90
12771;DHT22;6449;47.666;9.160;2023-07-09T21:20:11;24.70;99.90
12771;DHT22;6449;47.666;9.160;2023-07-09T21:25:16;24.50;99.90
12771;DHT22;6449;47.666;9.160;2023-07-09T21:30:12;24.40;99.90
12771;DHT22;6449;47.666;9.160;2023-07-09T21:35:19;24.20;99.90
12771;DHT22;6449;47.666;9.160;2023-07-09T21:40:26;24.20;99.90
12771;DHT22;6449;47.666;9.160;2023-07-09T21:45:26;24.20;99.90
12771;DHT22;6449;47.666;9.160;2023-07-09T21:50:24;24.10;99.90
12771;DHT22;6449;47.666;9.160;2023-07-09T21:55:19;23.90;99.90
12771;DHT22;6449;47.666;9.160;2023-07-09T22:00:16;23.90;99.90
12771;DHT22;6449;47.666;9.160;2023-07-09T22:05:15;23.80;99.90
12771;DHT22;6449;47.666;9.160;2023-07-09T22:10:12;23.60;99.90
12771;DHT22;6449;47.666;9.160;2023-07-09T22:15:14;23.70;99.90
12771;DHT22;6449;47.666;9.160;2023-07-09T22:20:10;23.60;99.90
12771;DHT22;6449;47.666;9.160;2023-07-09T22:25:13;23.60;99.90
12771;DHT22;6449;47.666;9.160;2023-07-09T22:30:09;23.50;99.90
12771;DHT22;6449;47.666;9.160;2023-07-09T22:35:05;23.40;99.90
12771;DHT22;6449;47.666;9.160;2023-07-09T22:40:14;23.30;99.90
12771;DHT22;6449;47.666;9.160;2023-07-09T22:45:11;23.20;99.90
12771;DHT22;6449;47.666;9.160;2023-07-09T22:50:12;23.10;99.90
12771;DHT22;6449;47.666;9.160;2023-07-09T22:55:32;22.80;99.90
12771;DHT22;6449;47.666;9.160;2023-07-09T23:00:29;22.80;99.90
12771;DHT22;6449;47.666;9.160;2023-07-09T23:05:25;22.70;99.90
12771;DHT22;6449;47.666;9.160;2023-07-09T23:10:19;22.70;99.90
12771;DHT22;6449;47.666;9.160;2023-07-09T23:15:21;22.60;99.90
12771;DHT22;6449;47.666;9.160;2023-07-09T23:20:16;22.50;99.90
12771;DHT22;6449;47.666;9.160;2023-07-09T23:25:11;22.50;99.90
12771;DHT22;6449;47.666;9.160;2023-07-09T23:30:13;22.40;99.90
12771;DHT22;6449;47.666;9.160;2023-07-09T23:35:16;22.40;99.90
12771;DHT22;6449;47.666;9.160;2023-07-09T23:40:12;22.30;99.90
12771;DHT22;6449;47.666;9.160;2023-07-09T23:45:08;22.20;99.90
12771;DHT22;6449;47.666;9.160;2023-07-09T23:50:12;22.10;99.90
12771;DHT22;6449;47.666;9.160;2023-07-09T23:55:09;22.00;99.90
